createdAt,value
2022-08-24T00:01:57.343Z,31.80
2022-08-24T00:04:25.825Z,31.80
2022-08-24T00:06:53.937Z,31.80
2022-08-24T00:09:22.099Z,32.00
2022-08-24T00:11:50.145Z,32.10
2022-08-24T00:14:20.098Z,32.30
2022-08-24T00:16:50.314Z,32.10
2022-08-24T00:19:18.747Z,31.90
2022-08-24T00:21:46.941Z,31.60
2022-08-24T00:24:15.050Z,31.80
2022-08-24T00:26:43.089Z,31.50
2022-08-24T00:29:11.147Z,31.30
2022-08-24T00:31:40.724Z,31.50
2022-08-24T00:34:08.801Z,31.90
2022-08-24T00:36:37.578Z,31.60
2022-08-24T00:39:06.621Z,31.90
2022-08-24T00:41:35.117Z,31.70
2022-08-24T00:44:06.065Z,31.80
2022-08-24T00:46:43.553Z,31.50
2022-08-24T00:49:19.256Z,31.50
2022-08-24T00:51:55.535Z,31.60
2022-08-24T00:54:26.882Z,31.20
2022-08-24T00:56:58.113Z,31.30
2022-08-24T00:59:30.475Z,31.50
2022-08-24T01:02:12.210Z,31.30
2022-08-24T01:04:50.001Z,30.90
2022-08-24T01:07:18.452Z,30.60
2022-08-24T01:09:46.885Z,30.90
2022-08-24T01:12:14.987Z,30.90
2022-08-24T01:14:43.383Z,31.40
2022-08-24T01:17:31.718Z,31.80
2022-08-24T01:20:05.769Z,31.80
2022-08-24T01:22:47.634Z,31.80
2022-08-24T01:25:17.864Z,31.90
2022-08-24T01:27:47.314Z,32.00
2022-08-24T01:30:18.162Z,32.10
2022-08-24T01:32:57.329Z,32.30
2022-08-24T01:35:25.519Z,32.30
2022-08-24T01:37:55.923Z,32.60
2022-08-24T01:40:32.531Z,32.50
2022-08-24T01:43:00.580Z,32.60
2022-08-24T01:45:28.841Z,32.50
2022-08-24T01:47:58.549Z,32.70
2022-08-24T01:50:27.019Z,32.80
2022-08-24T01:53:04.851Z,32.70
2022-08-24T01:55:36.023Z,32.40
2022-08-24T01:58:05.472Z,32.50
2022-08-24T02:00:34.869Z,32.60
2022-08-24T02:03:03.703Z,32.80
2022-08-24T02:05:31.932Z,32.90
2022-08-24T02:08:00.180Z,32.80
2022-08-24T02:10:29.535Z,32.80
2022-08-24T02:13:00.250Z,33.00
2022-08-24T02:15:30.934Z,33.00
2022-08-24T02:18:00.216Z,33.10
2022-08-24T02:20:30.193Z,33.10
2022-08-24T02:22:58.634Z,33.20
2022-08-24T02:25:30.059Z,33.30
2022-08-24T02:27:59.908Z,33.20
2022-08-24T02:30:28.728Z,33.30
2022-08-24T02:32:57.392Z,33.30
2022-08-24T02:35:28.170Z,33.30
2022-08-24T02:37:56.446Z,33.40
2022-08-24T02:40:25.114Z,33.50
2022-08-24T02:42:53.732Z,33.40
2022-08-24T02:45:24.144Z,33.30
2022-08-24T02:47:52.174Z,33.30
2022-08-24T02:50:22.797Z,33.40
2022-08-24T02:52:50.999Z,33.40
2022-08-24T02:55:20.596Z,33.40
2022-08-24T02:57:51.911Z,33.20
2022-08-24T03:00:22.395Z,33.10
2022-08-24T03:02:55.834Z,33.20
2022-08-24T03:05:25.965Z,33.20
2022-08-24T03:07:54.653Z,32.80
2022-08-24T03:10:23.634Z,32.20
2022-08-24T03:12:51.984Z,32.10
2022-08-24T03:15:23.152Z,32.30
2022-08-24T03:17:53.987Z,32.20
2022-08-24T03:20:24.385Z,32.30
2022-08-24T03:22:53.052Z,32.30
2022-08-24T03:25:24.614Z,32.40
2022-08-24T03:27:53.402Z,32.60
2022-08-24T03:30:22.771Z,32.50
2022-08-24T03:32:51.045Z,32.60
2022-08-24T03:35:21.965Z,32.60
2022-08-24T03:37:50.901Z,32.80
2022-08-24T03:40:22.993Z,33.00
2022-08-24T03:42:54.954Z,33.00
2022-08-24T03:45:23.517Z,33.10
2022-08-24T03:47:51.973Z,33.10
2022-08-24T03:50:22.561Z,33.20
2022-08-24T03:52:51.555Z,33.20
2022-08-24T03:55:20.385Z,33.40
2022-08-24T03:57:48.932Z,33.10
2022-08-24T04:00:17.995Z,33.00
2022-08-24T04:02:55.027Z,33.20
2022-08-24T04:05:27.029Z,33.20
2022-08-24T04:07:55.617Z,33.10
2022-08-24T04:10:25.041Z,33.10
2022-08-24T04:12:54.927Z,33.00
2022-08-24T04:15:24.398Z,33.00
2022-08-24T04:17:52.856Z,32.80
2022-08-24T04:20:20.997Z,32.80
2022-08-24T04:22:53.785Z,32.80
2022-08-24T04:25:25.215Z,32.80
2022-08-24T04:27:53.564Z,32.70
2022-08-24T04:30:24.670Z,32.40
2022-08-24T04:33:06.622Z,32.30
2022-08-24T04:35:39.481Z,32.00
2022-08-24T04:38:09.792Z,32.20
2022-08-24T04:40:41.276Z,32.20
2022-08-24T04:43:10.539Z,32.00
2022-08-24T04:45:41.538Z,32.40
2022-08-24T04:48:11.852Z,32.30
2022-08-24T04:50:42.763Z,32.20
2022-08-24T04:53:14.329Z,32.00
2022-08-24T04:55:49.562Z,31.90
2022-08-24T04:58:19.830Z,31.90
2022-08-24T05:00:48.349Z,32.30
2022-08-24T05:03:19.763Z,32.30
2022-08-24T05:05:50.400Z,32.00
2022-08-24T05:08:21.233Z,32.30
2022-08-24T05:10:51.120Z,32.50
2022-08-24T05:13:20.840Z,32.50
2022-08-24T05:15:49.996Z,32.10
2022-08-24T05:18:18.709Z,32.30
2022-08-24T05:20:48.517Z,32.10
2022-08-24T05:23:19.705Z,32.10
2022-08-24T05:25:49.815Z,32.30
2022-08-24T05:28:17.953Z,32.40
2022-08-24T05:30:46.269Z,32.20
2022-08-24T05:33:19.041Z,32.30
2022-08-24T05:35:47.505Z,32.40
2022-08-24T05:38:16.892Z,32.40
2022-08-24T05:40:44.935Z,32.40
2022-08-24T05:43:14.619Z,32.30
2022-08-24T05:45:44.622Z,32.40
2022-08-24T05:48:12.973Z,32.60
2022-08-24T05:50:59.575Z,32.90
2022-08-24T05:53:33.227Z,32.90
2022-08-24T05:56:04.526Z,32.90
2022-08-24T05:58:34.389Z,32.90
2022-08-24T06:01:08.390Z,32.70
2022-08-24T06:03:36.452Z,32.80
2022-08-24T06:06:08.616Z,32.40
2022-08-24T06:08:41.231Z,32.10
2022-08-24T06:11:11.060Z,32.10
2022-08-24T06:13:41.661Z,32.40
2022-08-24T06:16:21.780Z,32.70
2022-08-24T06:18:52.047Z,32.80
2022-08-24T06:21:22.977Z,32.80
2022-08-24T06:23:52.566Z,33.00
2022-08-24T06:26:40.179Z,32.90
2022-08-24T06:29:10.660Z,32.80
2022-08-24T06:31:48.447Z,33.30
2022-08-24T06:34:26.017Z,33.60
2022-08-24T06:36:54.624Z,33.80
2022-08-24T06:39:24.787Z,33.50
2022-08-24T06:41:55.010Z,33.20
2022-08-24T06:44:32.944Z,33.20
2022-08-24T06:47:09.506Z,33.40
2022-08-24T06:49:38.217Z,33.60
2022-08-24T06:52:07.116Z,33.30
2022-08-24T06:54:35.269Z,33.50
2022-08-24T06:57:04.784Z,33.60
2022-08-24T06:59:34.600Z,33.50
2022-08-24T07:02:02.888Z,33.30
2022-08-24T07:04:31.309Z,33.80
2022-08-24T07:07:21.943Z,33.90
2022-08-24T07:09:50.131Z,33.60
2022-08-24T07:12:20.949Z,32.80
2022-08-24T07:14:50.622Z,33.00
2022-08-24T07:17:19.852Z,33.50
2022-08-24T07:19:50.170Z,33.80
2022-08-24T07:22:38.182Z,33.90
2022-08-24T07:25:08.103Z,34.10
2022-08-24T07:27:36.822Z,33.50
2022-08-24T07:30:26.406Z,33.90
2022-08-24T07:32:57.717Z,34.20
2022-08-24T07:35:28.385Z,33.70
2022-08-24T07:37:56.946Z,33.80
2022-08-24T07:40:26.988Z,34.30
2022-08-24T07:42:59.555Z,34.00
2022-08-24T07:45:31.054Z,34.40
2022-08-24T07:50:38.952Z,34.90
2022-08-24T07:53:09.925Z,35.10
2022-08-24T07:55:46.279Z,34.80
2022-08-24T07:58:14.743Z,34.40
2022-08-24T08:00:48.768Z,34.40
2022-08-24T08:03:17.055Z,34.80
2022-08-24T08:05:47.508Z,34.90
2022-08-24T08:08:15.754Z,35.00
2022-08-24T08:10:44.716Z,35.20
2022-08-24T08:13:12.719Z,35.10
2022-08-24T08:15:40.783Z,35.00
2022-08-24T08:18:13.058Z,34.80
2022-08-24T08:20:43.159Z,35.10
2022-08-24T08:23:30.540Z,35.20
2022-08-24T08:26:18.966Z,35.30
2022-08-24T08:29:05.157Z,35.00
2022-08-24T08:31:36.822Z,35.00
2022-08-24T08:34:08.130Z,35.00
2022-08-24T08:36:39.519Z,34.90
2022-08-24T08:39:10.607Z,35.00
2022-08-24T08:42:05.460Z,34.90
2022-08-24T08:45:00.492Z,34.90
2022-08-24T08:48:12.240Z,34.70
2022-08-24T08:50:59.721Z,34.70
2022-08-24T08:53:55.946Z,34.60
2022-08-24T08:56:33.937Z,34.80
2022-08-24T08:59:14.130Z,34.80
2022-08-24T09:02:00.702Z,34.60
2022-08-24T09:04:55.707Z,34.50
2022-08-24T09:07:41.753Z,34.70
2022-08-24T09:10:35.855Z,34.40
2022-08-24T09:13:20.030Z,34.30
2022-08-24T09:16:09.671Z,34.40
2022-08-24T09:19:01.633Z,34.50
2022-08-24T09:21:46.143Z,34.80
2022-08-24T09:24:42.348Z,34.80
2022-08-24T09:27:38.467Z,34.90
2022-08-24T09:30:12.811Z,34.90
2022-08-24T09:32:59.102Z,35.20
2022-08-24T09:35:38.535Z,35.20
2022-08-24T09:38:18.759Z,35.30
2022-08-24T09:41:14.462Z,35.30
2022-08-24T09:44:22.429Z,35.50
2022-08-24T09:47:21.118Z,35.70
2022-08-24T09:50:18.609Z,35.70
2022-08-24T09:53:15.789Z,35.50
2022-08-24T09:56:15.406Z,35.50
2022-08-24T09:59:08.083Z,35.40
2022-08-24T10:01:43.045Z,35.20
2022-08-24T10:04:20.850Z,34.70
2022-08-24T10:07:00.920Z,35.00
2022-08-24T10:09:54.827Z,35.10
2022-08-24T10:12:35.040Z,34.90
2022-08-24T10:15:09.892Z,34.80
2022-08-24T10:17:49.662Z,34.70
2022-08-24T10:20:24.680Z,34.70
2022-08-24T10:23:07.967Z,34.80
2022-08-24T10:25:40.884Z,34.80
2022-08-24T10:28:47.037Z,34.60
2022-08-24T10:31:20.381Z,35.10
2022-08-24T10:34:05.582Z,35.40
2022-08-24T10:37:15.167Z,35.50
2022-08-24T10:40:13.028Z,35.70
2022-08-24T10:43:34.807Z,35.80
2022-08-24T10:46:35.396Z,35.70
2022-08-24T10:49:43.961Z,35.70
2022-08-24T10:52:46.625Z,35.90
2022-08-24T10:55:19.833Z,36.20
2022-08-24T10:58:00.735Z,36.20
2022-08-24T11:00:31.739Z,36.00
2022-08-24T11:03:09.493Z,36.00
2022-08-24T11:05:44.000Z,36.30
2022-08-24T11:08:19.329Z,36.00
2022-08-24T11:11:03.470Z,36.30
2022-08-24T11:13:31.871Z,36.50
2022-08-24T11:16:03.225Z,36.20
2022-08-24T11:18:49.394Z,36.30
2022-08-24T11:21:34.688Z,36.20
2022-08-24T11:24:05.026Z,36.00
2022-08-24T11:26:53.583Z,36.20
2022-08-24T11:29:23.163Z,35.70
2022-08-24T11:31:53.973Z,35.60
2022-08-24T11:34:33.475Z,35.20
2022-08-24T11:37:01.752Z,34.90
2022-08-24T11:39:35.735Z,35.40
2022-08-24T11:42:14.517Z,35.20
2022-08-24T11:44:50.396Z,35.80
2022-08-24T11:47:46.075Z,36.30
2022-08-24T11:50:29.971Z,36.20
2022-08-24T11:53:15.263Z,36.60
2022-08-24T11:55:56.225Z,36.80
2022-08-24T11:58:46.683Z,37.00
2022-08-24T12:01:20.106Z,36.40
2022-08-24T12:04:08.070Z,36.20
2022-08-24T12:06:46.282Z,36.60
2022-08-24T12:09:31.300Z,36.50
2022-08-24T12:12:10.087Z,36.20
2022-08-24T12:14:43.906Z,36.70
2022-08-24T12:17:17.276Z,37.20
2022-08-24T12:19:50.699Z,37.30
2022-08-24T12:22:21.019Z,37.20
2022-08-24T12:24:52.429Z,37.50
2022-08-24T12:27:25.422Z,37.20
2022-08-24T12:30:05.599Z,37.30
2022-08-24T12:32:40.769Z,37.40
2022-08-24T12:35:15.324Z,37.20
2022-08-24T12:37:49.153Z,37.30
2022-08-24T12:40:24.701Z,37.70
2022-08-24T12:42:57.189Z,38.00
2022-08-24T12:45:27.175Z,37.80
2022-08-24T12:48:04.246Z,37.40
2022-08-24T12:50:45.378Z,37.40
2022-08-24T12:53:46.884Z,37.70
2022-08-24T12:56:56.236Z,37.60
2022-08-24T12:59:27.694Z,37.80
2022-08-24T13:02:02.922Z,37.80
2022-08-24T13:04:45.475Z,37.80
2022-08-24T13:07:31.060Z,37.80
2022-08-24T13:10:14.580Z,37.80
2022-08-24T13:12:57.035Z,37.80
2022-08-24T13:16:03.218Z,37.80
2022-08-24T13:19:17.754Z,38.00
2022-08-24T13:21:50.760Z,37.90
2022-08-24T13:24:54.424Z,38.00
2022-08-24T13:28:07.186Z,38.30
2022-08-24T13:31:18.372Z,38.50
2022-08-24T13:33:50.179Z,38.50
2022-08-24T13:36:53.127Z,38.40
2022-08-24T13:39:54.306Z,38.60
2022-08-24T13:42:47.351Z,38.70
2022-08-24T13:45:27.202Z,38.80
2022-08-24T13:48:10.832Z,38.80
2022-08-24T13:50:47.951Z,38.70
2022-08-24T13:53:46.710Z,38.20
2022-08-24T13:56:46.864Z,38.40
2022-08-24T13:59:44.287Z,38.50
2022-08-24T14:02:28.251Z,38.20
2022-08-24T14:05:04.167Z,37.90
2022-08-24T14:07:45.279Z,38.10
2022-08-24T14:10:26.899Z,38.10
2022-08-24T14:13:04.903Z,38.10
2022-08-24T14:15:49.812Z,37.90
2022-08-24T14:18:29.999Z,37.80
2022-08-24T14:21:08.994Z,38.00
2022-08-24T14:23:52.903Z,37.90
2022-08-24T14:27:08.444Z,37.50
2022-08-24T14:29:42.896Z,37.70
2022-08-24T14:32:31.515Z,37.70
2022-08-24T14:35:23.697Z,37.80
2022-08-24T14:38:02.557Z,37.20
2022-08-24T14:40:37.170Z,36.70
2022-08-24T14:43:30.159Z,36.80
2022-08-24T14:46:09.370Z,36.70
2022-08-24T14:48:48.899Z,36.80
2022-08-24T14:51:35.771Z,36.50
2022-08-24T14:54:15.770Z,36.60
2022-08-24T14:56:57.345Z,36.40
2022-08-24T14:59:47.507Z,36.60
2022-08-24T15:02:46.336Z,36.70
2022-08-24T15:05:25.518Z,37.10
2022-08-24T15:08:00.594Z,36.90
2022-08-24T15:10:36.912Z,37.10
2022-08-24T15:13:11.773Z,37.40
2022-08-24T15:15:51.690Z,37.70
2022-08-24T15:18:36.827Z,37.80
2022-08-24T15:21:27.281Z,37.60
2022-08-24T15:24:10.104Z,37.60
2022-08-24T15:26:53.093Z,37.00
2022-08-24T15:29:24.787Z,37.00
2022-08-24T15:32:02.074Z,36.60
2022-08-24T15:34:45.654Z,36.80
2022-08-24T15:37:16.863Z,36.80
2022-08-24T15:39:45.367Z,37.20
2022-08-24T15:42:25.358Z,37.10
2022-08-24T15:44:55.003Z,37.30
2022-08-24T15:47:31.044Z,37.50
2022-08-24T15:50:02.741Z,37.50
2022-08-24T15:52:48.087Z,37.50
2022-08-24T15:55:35.738Z,37.50
2022-08-24T15:58:20.719Z,37.80
2022-08-24T16:01:06.389Z,37.70
2022-08-24T16:03:52.925Z,37.40
2022-08-24T16:06:35.506Z,37.60
2022-08-24T16:09:09.699Z,37.50
2022-08-24T16:11:41.629Z,37.80
2022-08-24T16:14:17.437Z,37.40
2022-08-24T16:16:47.401Z,37.00
2022-08-24T16:19:25.824Z,36.80
2022-08-24T16:22:01.206Z,36.40
2022-08-24T16:24:35.966Z,36.10
2022-08-24T16:27:10.794Z,35.80
2022-08-24T16:29:55.599Z,35.50
2022-08-24T16:32:34.433Z,35.40
2022-08-24T16:35:21.285Z,35.30
2022-08-24T16:37:51.215Z,34.50
2022-08-24T16:40:21.990Z,34.80
2022-08-24T16:42:53.899Z,35.20
2022-08-24T16:45:23.466Z,35.10
2022-08-24T16:47:51.686Z,35.10
2022-08-24T16:50:22.028Z,35.00
2022-08-24T16:52:55.663Z,35.10
2022-08-24T16:55:29.565Z,35.00
2022-08-24T16:58:01.149Z,34.80
2022-08-24T17:00:30.939Z,34.40
2022-08-24T17:03:00.068Z,34.30
2022-08-24T17:05:29.687Z,34.40
2022-08-24T17:08:01.030Z,34.50
2022-08-24T17:10:33.935Z,34.50
2022-08-24T17:13:06.614Z,34.40
2022-08-24T17:15:37.083Z,34.10
2022-08-24T17:18:09.894Z,34.30
2022-08-24T17:20:43.251Z,34.40
2022-08-24T17:23:13.417Z,34.30
2022-08-24T17:25:43.478Z,34.00
2022-08-24T17:28:14.303Z,34.10
2022-08-24T17:30:42.784Z,33.90
2022-08-24T17:33:11.971Z,33.90
2022-08-24T17:35:41.330Z,34.20
2022-08-24T17:38:10.531Z,34.10
2022-08-24T17:40:38.611Z,34.10
2022-08-24T17:43:10.081Z,34.10
2022-08-24T17:45:38.192Z,34.00
2022-08-24T17:48:06.519Z,34.00
2022-08-24T17:50:35.005Z,33.90
2022-08-24T17:53:05.250Z,33.70
2022-08-24T17:55:33.349Z,33.90
2022-08-24T17:58:03.333Z,33.90
2022-08-24T18:00:33.722Z,33.60
2022-08-24T18:03:02.721Z,33.80
2022-08-24T18:05:32.851Z,33.90
2022-08-24T18:08:01.943Z,34.00
2022-08-24T18:10:34.105Z,34.00
2022-08-24T18:13:04.374Z,33.80
2022-08-24T18:15:36.496Z,34.10
2022-08-24T18:18:09.782Z,34.10
2022-08-24T18:20:41.512Z,34.10
2022-08-24T18:23:11.582Z,33.60
2022-08-24T18:25:45.039Z,33.70
2022-08-24T18:28:16.378Z,33.20
2022-08-24T18:30:46.118Z,33.30
2022-08-24T18:33:32.840Z,33.60
2022-08-24T18:36:23.226Z,33.70
2022-08-24T18:38:54.409Z,33.70
2022-08-24T18:41:24.954Z,33.50
2022-08-24T18:43:54.365Z,33.50
2022-08-24T18:46:25.030Z,33.60
2022-08-24T18:48:54.507Z,33.50
2022-08-24T18:51:24.057Z,33.30
2022-08-24T18:54:03.403Z,33.30
2022-08-24T18:56:34.403Z,33.50
2022-08-24T18:59:05.645Z,33.70
2022-08-24T19:01:57.084Z,33.70
2022-08-24T19:04:30.248Z,33.70
2022-08-24T19:07:02.265Z,33.60
2022-08-24T19:09:34.499Z,33.40
2022-08-24T19:12:05.189Z,33.50
2022-08-24T19:14:35.905Z,33.40
2022-08-24T19:17:06.558Z,33.30
2022-08-24T19:19:35.424Z,33.10
2022-08-24T19:22:04.365Z,33.30
2022-08-24T19:24:35.675Z,33.30
2022-08-24T19:27:04.739Z,33.30
2022-08-24T19:32:29.271Z,33.30
2022-08-24T19:35:02.747Z,33.30
2022-08-24T19:37:31.764Z,33.10
2022-08-24T19:40:04.322Z,33.20
2022-08-24T19:42:32.942Z,33.30
2022-08-24T19:45:21.585Z,33.30
2022-08-24T19:47:51.451Z,33.50
2022-08-24T19:50:21.471Z,33.50
2022-08-24T19:52:50.126Z,33.50
2022-08-24T19:55:18.644Z,33.50
2022-08-24T19:58:06.778Z,33.50
2022-08-24T20:00:42.683Z,33.50
2022-08-24T20:03:19.547Z,33.50
2022-08-24T20:05:47.795Z,33.40
2022-08-24T20:08:19.005Z,33.50
2022-08-24T20:10:53.058Z,33.40
2022-08-24T20:13:21.457Z,33.40
2022-08-24T20:16:11.065Z,33.00
2022-08-24T20:18:51.737Z,32.90
2022-08-24T20:24:25.811Z,33.00
2022-08-24T20:26:54.876Z,33.10
2022-08-24T20:29:25.046Z,33.20
2022-08-24T20:31:56.441Z,33.10
2022-08-24T20:34:26.990Z,32.80
2022-08-24T20:36:55.126Z,32.50
2022-08-24T20:39:28.440Z,32.30
2022-08-24T20:41:57.864Z,32.40
2022-08-24T20:44:26.265Z,32.50
2022-08-24T20:46:57.560Z,32.50
2022-08-24T20:49:29.056Z,32.70
2022-08-24T20:51:57.307Z,32.90
2022-08-24T20:54:50.921Z,33.00
2022-08-24T20:57:48.299Z,33.10
2022-08-24T21:00:44.522Z,33.10
2022-08-24T21:03:15.958Z,33.00
2022-08-24T21:05:54.265Z,33.10
2022-08-24T21:08:25.784Z,33.00
2022-08-24T21:10:55.975Z,32.90
2022-08-24T21:13:36.782Z,33.00
2022-08-24T21:16:18.824Z,32.90
2022-08-24T21:18:52.211Z,33.00
2022-08-24T21:21:32.311Z,33.10
2022-08-24T21:24:00.980Z,33.10
2022-08-24T21:26:47.605Z,33.00
2022-08-24T21:29:19.364Z,33.10
2022-08-24T21:32:04.072Z,33.10
2022-08-24T21:34:44.095Z,33.10
2022-08-24T21:37:16.312Z,33.10
2022-08-24T21:39:48.686Z,32.90
2022-08-24T21:42:17.423Z,33.00
2022-08-24T21:44:48.455Z,32.80
2022-08-24T21:47:18.866Z,33.00
2022-08-24T21:49:46.940Z,33.00
2022-08-24T21:52:16.391Z,32.90
2022-08-24T21:54:46.699Z,32.90
2022-08-24T21:57:15.322Z,32.90
2022-08-24T21:59:44.218Z,32.90
2022-08-24T22:02:13.347Z,32.90
2022-08-24T22:04:44.791Z,32.80
2022-08-24T22:07:13.286Z,32.90
2022-08-24T22:09:42.689Z,32.90
2022-08-24T22:12:10.722Z,32.80
2022-08-24T22:14:38.923Z,32.80
2022-08-24T22:17:09.790Z,32.90
2022-08-24T22:19:38.288Z,32.80
2022-08-24T22:22:06.297Z,32.80
2022-08-24T22:24:34.377Z,32.90
2022-08-24T22:27:03.810Z,32.80
2022-08-24T22:29:31.839Z,32.90
2022-08-24T22:31:59.845Z,32.80
2022-08-24T22:34:27.842Z,32.70
2022-08-24T22:36:59.211Z,32.70
2022-08-24T22:39:27.255Z,32.60
2022-08-24T22:41:55.261Z,32.60
2022-08-24T22:44:25.220Z,32.50
2022-08-24T22:46:55.602Z,32.50
2022-08-24T22:49:26.330Z,32.60
2022-08-24T22:51:54.320Z,32.60
2022-08-24T22:54:22.601Z,32.50
2022-08-24T22:56:54.306Z,32.50
2022-08-24T22:59:26.630Z,32.60
2022-08-24T23:01:56.199Z,32.40
2022-08-24T23:04:28.563Z,32.40
2022-08-24T23:06:56.791Z,32.50
2022-08-24T23:09:25.514Z,32.40
2022-08-24T23:11:53.613Z,32.20
2022-08-24T23:14:23.065Z,32.20
2022-08-24T23:16:53.281Z,32.20
2022-08-24T23:19:40.952Z,32.10
2022-08-24T23:22:12.503Z,32.10
2022-08-24T23:24:42.586Z,32.20
2022-08-24T23:27:13.444Z,32.20
2022-08-24T23:29:41.952Z,31.80
2022-08-24T23:32:11.358Z,31.80
2022-08-24T23:34:39.403Z,31.90
2022-08-24T23:37:07.502Z,32.00
2022-08-24T23:39:36.533Z,32.10
2022-08-24T23:42:05.937Z,32.10
2022-08-24T23:44:34.694Z,31.90
2022-08-24T23:47:02.730Z,31.70
2022-08-24T23:49:32.518Z,31.60
2022-08-24T23:52:01.030Z,31.80
2022-08-24T23:54:29.751Z,31.90
2022-08-24T23:56:58.230Z,31.70
2022-08-24T23:59:29.261Z,31.80
